Time;durP1;ratioP1;P1;durP2;ratioP2;P2;SDS_P1;SDS_P2;PMS_P1;PMS_P2;Temp;Humidity;BMP_temperature;BMP_pressure;BME280_temperature;BME280_humidity;BME280_pressure;Samples;Min_cycle;Max_cycle;Signal;HPM_P1;HPM_P2
2023/03/24 00:01:56;;;;;;;;;;;17.40;68.90;;;;;;10034330;29;93585;-65
2023/03/24 00:07:00;;;;;;;;;;;17.40;68.90;;;;;;10049830;29;93303;-65
2023/03/24 00:12:02;;;;;;;;;;;17.40;68.90;;;;;;10050267;29;94499;-65
2023/03/24 00:17:04;;;;;;;;;;;17.40;68.90;;;;;;10046814;29;96889;-65
2023/03/24 00:22:07;;;;;;;;;;;17.40;68.90;;;;;;10049312;29;93476;-65
2023/03/24 00:27:12;;;;;;;;;;;17.30;68.80;;;;;;10051290;29;93515;-65
2023/03/24 00:32:14;;;;;;;;;;;17.30;68.90;;;;;;10050072;29;93152;-65
2023/03/24 00:37:16;;;;;;;;;;;17.30;68.80;;;;;;10049606;29;94569;-65
2023/03/24 00:42:18;;;;;;;;;;;17.30;68.90;;;;;;10048672;29;93842;-65
2023/03/24 00:47:24;;;;;;;;;;;17.30;68.90;;;;;;10048177;29;93784;-65
2023/03/24 00:52:32;;;;;;;;;;;17.30;68.80;;;;;;10050003;29;92831;-64
2023/03/24 00:57:34;;;;;;;;;;;17.30;68.80;;;;;;10048155;29;93465;-64
2023/03/24 01:02:36;;;;;;;;;;;17.30;68.80;;;;;;10047943;29;94146;-65
2023/03/24 01:07:41;;;;;;;;;;;17.30;68.90;;;;;;10045735;29;95647;-65
2023/03/24 01:12:43;;;;;;;;;;;17.30;68.80;;;;;;10030597;29;94363;-65
2023/03/24 01:17:48;;;;;;;;;;;17.30;68.80;;;;;;10047618;29;92557;-65
2023/03/24 01:22:50;;;;;;;;;;;17.30;68.80;;;;;;10048126;29;94288;-65
2023/03/24 01:27:52;;;;;;;;;;;17.30;68.80;;;;;;10049235;29;94080;-65
2023/03/24 01:32:54;;;;;;;;;;;17.30;68.80;;;;;;10047779;29;93481;-64
2023/03/24 01:37:56;;;;;;;;;;;17.30;68.80;;;;;;10046849;29;92861;-65
2023/03/24 01:42:58;;;;;;;;;;;17.30;68.80;;;;;;10048077;29;91876;-65
2023/03/24 01:48:00;;;;;;;;;;;17.30;68.80;;;;;;10046704;29;94857;-65
2023/03/24 01:53:03;;;;;;;;;;;17.30;68.80;;;;;;10047256;29;93801;-65
2023/03/24 01:58:06;;;;;;;;;;;17.20;68.70;;;;;;10028191;29;96516;-65
2023/03/24 02:03:16;;;;;;;;;;;17.20;68.80;;;;;;10046217;29;93978;-64
2023/03/24 02:08:27;;;;;;;;;;;17.30;68.80;;;;;;10046686;29;94767;-65
2023/03/24 02:13:29;;;;;;;;;;;17.20;68.70;;;;;;10050715;29;93507;-65
2023/03/24 02:18:36;;;;;;;;;;;17.20;68.80;;;;;;10052816;29;93876;-65
2023/03/24 02:23:56;;;;;;;;;;;17.20;68.70;;;;;;10052848;29;94291;-65
2023/03/24 02:29:04;;;;;;;;;;;17.20;68.70;;;;;;10052659;29;94469;-65
2023/03/24 02:34:09;;;;;;;;;;;17.20;68.70;;;;;;10053508;29;93749;-65
2023/03/24 02:39:16;;;;;;;;;;;17.20;68.70;;;;;;10034961;29;93292;-64
2023/03/24 02:44:38;;;;;;;;;;;17.20;68.90;;;;;;10051878;29;93545;-65
2023/03/24 02:50:01;;;;;;;;;;;17.20;68.90;;;;;;10078912;28;96094;-65
2023/03/24 02:55:08;;;;;;;;;;;17.20;69.00;;;;;;10129882;28;94213;-65
2023/03/24 03:00:17;;;;;;;;;;;17.20;69.00;;;;;;10098409;28;94487;-65
2023/03/24 03:05:25;;;;;;;;;;;17.20;68.90;;;;;;10131003;28;94496;-65
2023/03/24 03:10:30;;;;;;;;;;;17.20;68.90;;;;;;10130030;28;94576;-65
2023/03/24 03:15:35;;;;;;;;;;;17.20;68.80;;;;;;10129292;28;94037;-65
2023/03/24 03:20:41;;;;;;;;;;;17.20;68.70;;;;;;10112389;28;94441;-65
2023/03/24 03:25:49;;;;;;;;;;;17.20;68.60;;;;;;10113423;28;93135;-64
2023/03/24 03:30:55;;;;;;;;;;;17.20;68.50;;;;;;10129894;28;94598;-65
2023/03/24 03:36:01;;;;;;;;;;;17.20;68.40;;;;;;10128087;28;92538;-65
2023/03/24 03:41:04;;;;;;;;;;;17.10;68.30;;;;;;10126781;28;95798;-65
2023/03/24 03:46:06;;;;;;;;;;;17.10;68.30;;;;;;10128242;28;93547;-65
2023/03/24 03:51:08;;;;;;;;;;;17.10;68.20;;;;;;10128352;28;94521;-65
2023/03/24 03:56:17;;;;;;;;;;;17.10;68.20;;;;;;10112600;28;94083;-65
2023/03/24 04:01:20;;;;;;;;;;;17.10;68.10;;;;;;10111193;28;94491;-65
2023/03/24 04:06:43;;;;;;;;;;;17.10;68.00;;;;;;10128507;28;93485;-65
2023/03/24 04:11:50;;;;;;;;;;;17.10;68.00;;;;;;10127619;28;92726;-65
2023/03/24 04:17:11;;;;;;;;;;;17.10;68.00;;;;;;10129347;28;92740;-65
2023/03/24 04:22:31;;;;;;;;;;;17.10;67.90;;;;;;10110606;28;93838;-65
2023/03/24 04:27:47;;;;;;;;;;;17.10;67.90;;;;;;10111577;28;94323;-65
2023/03/24 04:32:57;;;;;;;;;;;17.10;67.80;;;;;;10125081;28;95472;-65
2023/03/24 04:38:02;;;;;;;;;;;17.10;67.80;;;;;;10127279;28;93464;-65
2023/03/24 04:43:07;;;;;;;;;;;17.10;67.70;;;;;;10126033;28;93798;-65
2023/03/24 06:06:58;;;;;;;;;;;17.00;67.40;;;;;;9963441;29;93332;-66
2023/03/24 06:12:03;;;;;;;;;;;17.00;67.50;;;;;;9975824;29;92795;-66
2023/03/24 06:17:06;;;;;;;;;;;17.00;67.50;;;;;;9977480;29;93067;-65
2023/03/24 06:22:07;;;;;;;;;;;17.00;68.40;;;;;;9958978;29;93011;-65
2023/03/24 06:27:10;;;;;;;;;;;17.10;67.50;;;;;;9975842;29;94506;-65
2023/03/24 06:32:12;;;;;;;;;;;17.00;67.50;;;;;;9973802;29;96860;-65
2023/03/24 06:37:14;;;;;;;;;;;17.10;67.60;;;;;;9975949;29;94316;-69
2023/03/24 06:42:17;;;;;;;;;;;17.10;67.70;;;;;;9976048;29;93224;-69
2023/03/24 06:47:19;;;;;;;;;;;17.10;67.90;;;;;;9974338;29;93653;-70
2023/03/24 06:52:21;;;;;;;;;;;17.10;67.60;;;;;;9997728;29;93317;-70
2023/03/24 06:57:23;;;;;;;;;;;17.10;67.60;;;;;;9997061;29;94193;-72
2023/03/24 07:02:27;;;;;;;;;;;17.10;67.90;;;;;;10013171;29;93307;-70
2023/03/24 07:07:28;;;;;;;;;;;17.20;69.20;;;;;;10015364;29;92707;-71
2023/03/24 07:12:50;;;;;;;;;;;17.20;69.70;;;;;;9999811;29;95972;-70
2023/03/24 07:17:52;;;;;;;;;;;17.30;69.60;;;;;;9997044;29;93315;-65
2023/03/24 07:22:57;;;;;;;;;;;17.30;69.60;;;;;;10010790;29;95508;-65
2023/03/24 07:27:58;;;;;;;;;;;17.40;69.40;;;;;;9986404;29;94588;-65
2023/03/24 07:33:01;;;;;;;;;;;17.40;70.00;;;;;;9973954;29;93482;-65
2023/03/24 07:38:03;;;;;;;;;;;17.50;68.70;;;;;;9974683;29;94766;-65
2023/03/24 07:43:05;;;;;;;;;;;17.60;68.50;;;;;;9973490;29;94465;-65
2023/03/24 07:48:07;;;;;;;;;;;17.60;68.50;;;;;;9974194;29;94578;-65
2023/03/24 07:53:08;;;;;;;;;;;17.60;68.40;;;;;;9973889;29;93469;-64
2023/03/24 07:58:10;;;;;;;;;;;17.60;68.30;;;;;;9974469;29;93497;-65
2023/03/24 08:03:13;;;;;;;;;;;17.60;68.20;;;;;;9956571;29;93291;-65
2023/03/24 08:08:15;;;;;;;;;;;17.60;68.70;;;;;;9971130;29;92610;-65
2023/03/24 08:13:17;;;;;;;;;;;17.70;68.40;;;;;;9953035;29;97302;-65
2023/03/24 08:18:20;;;;;;;;;;;17.70;67.90;;;;;;9972706;29;93714;-66
2023/03/24 08:23:22;;;;;;;;;;;17.60;67.80;;;;;;9955484;29;95666;-65
2023/03/24 08:28:24;;;;;;;;;;;17.70;67.50;;;;;;9972642;29;93261;-65
2023/03/24 08:33:26;;;;;;;;;;;17.60;67.30;;;;;;9971565;29;93334;-65
2023/03/24 08:38:31;;;;;;;;;;;17.60;67.30;;;;;;9955189;29;93795;-65
2023/03/24 08:43:33;;;;;;;;;;;17.60;67.40;;;;;;9971860;29;94852;-65
2023/03/24 08:48:38;;;;;;;;;;;17.70;67.30;;;;;;9972765;29;92755;-65
2023/03/24 08:53:40;;;;;;;;;;;17.70;67.00;;;;;;9972325;29;94663;-64
2023/03/24 08:58:41;;;;;;;;;;;17.70;66.80;;;;;;9972001;29;94600;-65
2023/03/24 09:03:43;;;;;;;;;;;17.70;66.70;;;;;;9969867;29;96934;-65
2023/03/24 09:08:45;;;;;;;;;;;17.70;66.60;;;;;;9971611;29;93421;-65
2023/03/24 09:13:47;;;;;;;;;;;17.70;66.60;;;;;;9954220;29;93545;-66
2023/03/24 09:18:49;;;;;;;;;;;17.70;66.40;;;;;;9971373;29;94146;-65
2023/03/24 09:23:51;;;;;;;;;;;17.80;66.20;;;;;;9958718;29;93537;-65
2023/03/24 09:28:53;;;;;;;;;;;17.80;65.90;;;;;;9960879;29;93641;-65
2023/03/24 09:33:54;;;;;;;;;;;17.80;65.70;;;;;;9961113;29;93676;-64
2023/03/24 09:38:56;;;;;;;;;;;17.80;65.60;;;;;;9961563;29;92733;-64
2023/03/24 09:44:05;;;;;;;;;;;17.80;65.50;;;;;;9977102;29;93521;-65
2023/03/24 09:49:10;;;;;;;;;;;17.80;65.40;;;;;;9960032;29;93460;-64
2023/03/24 09:54:24;;;;;;;;;;;17.80;65.30;;;;;;9972927;29;95854;-65
2023/03/24 09:59:37;;;;;;;;;;;17.80;65.20;;;;;;9959122;29;94105;-66
2023/03/24 10:04:39;;;;;;;;;;;17.90;65.10;;;;;;9974970;29;94467;-65
2023/03/24 10:09:44;;;;;;;;;;;17.90;65.00;;;;;;9975237;29;94128;-65
2023/03/24 10:14:52;;;;;;;;;;;17.90;64.80;;;;;;9957889;29;93319;-65
2023/03/24 10:20:08;;;;;;;;;;;17.90;64.90;;;;;;9974262;29;93340;-65
2023/03/24 10:25:15;;;;;;;;;;;18.00;64.80;;;;;;9974553;29;93290;-64
2023/03/24 10:30:43;;;;;;;;;;;18.00;64.70;;;;;;9974430;29;92768;-66
2023/03/24 10:35:57;;;;;;;;;;;18.00;64.50;;;;;;9972150;29;94492;-65
2023/03/24 10:40:59;;;;;;;;;;;18.00;64.50;;;;;;9973807;29;93610;-64
2023/03/24 10:46:01;;;;;;;;;;;18.00;64.40;;;;;;9938763;29;96576;-65
2023/03/24 10:51:04;;;;;;;;;;;18.00;64.40;;;;;;9908213;29;1948140;-65
2023/03/24 10:56:06;;;;;;;;;;;18.00;64.40;;;;;;9958506;29;94424;-64
2023/03/24 11:01:29;;;;;;;;;;;18.00;64.30;;;;;;9975365;29;94465;-65
2023/03/24 11:06:32;;;;;;;;;;;18.00;64.40;;;;;;9958190;29;92652;-64
2023/03/24 11:11:34;;;;;;;;;;;18.00;64.30;;;;;;9975316;29;94837;-65
2023/03/24 11:16:38;;;;;;;;;;;18.00;64.30;;;;;;9974702;29;94998;-65
2023/03/24 11:21:41;;;;;;;;;;;18.00;64.20;;;;;;9975567;29;94024;-65
2023/03/24 11:26:44;;;;;;;;;;;18.00;64.10;;;;;;9974587;29;94572;-65
2023/03/24 11:31:51;;;;;;;;;;;18.00;64.10;;;;;;9979620;29;93690;-65
2023/03/24 11:36:59;;;;;;;;;;;17.90;64.10;;;;;;10008073;29;96627;-65
2023/03/24 11:42:01;;;;;;;;;;;17.90;64.10;;;;;;10012563;29;94613;-65
2023/03/24 11:47:13;;;;;;;;;;;17.90;64.20;;;;;;10011728;29;94795;-65
2023/03/24 11:52:22;;;;;;;;;;;17.90;64.20;;;;;;10010519;29;93681;-65
2023/03/24 11:57:48;;;;;;;;;;;17.90;64.10;;;;;;10012366;29;93501;-64
2023/03/24 12:03:06;;;;;;;;;;;17.90;64.20;;;;;;10010695;29;93440;-66
2023/03/24 12:08:10;;;;;;;;;;;17.90;64.00;;;;;;10013143;29;93462;-67
2023/03/24 12:13:19;;;;;;;;;;;17.90;65.00;;;;;;10012338;29;93068;-67
2023/03/24 12:18:42;;;;;;;;;;;17.90;64.20;;;;;;10011450;29;94481;-64
2023/03/24 12:23:46;;;;;;;;;;;18.00;64.90;;;;;;10012058;29;93662;-66
2023/03/24 12:28:54;;;;;;;;;;;18.00;64.80;;;;;;10007463;29;96991;-67
2023/03/24 12:34:12;;;;;;;;;;;18.00;64.30;;;;;;10010632;29;94509;-67
2023/03/24 12:39:16;;;;;;;;;;;18.00;64.30;;;;;;10011035;29;92581;-66
2023/03/24 12:44:36;;;;;;;;;;;18.00;64.10;;;;;;10009945;29;93204;-67
2023/03/24 12:49:52;;;;;;;;;;;18.00;64.10;;;;;;10008640;29;93542;-67
2023/03/24 12:55:05;;;;;;;;;;;18.00;64.00;;;;;;10010413;29;94626;-67
2023/03/24 13:00:27;;;;;;;;;;;18.00;63.70;;;;;;10010576;29;93663;-67
2023/03/24 13:05:30;;;;;;;;;;;18.00;63.90;;;;;;10008817;29;93283;-67
2023/03/24 13:10:39;;;;;;;;;;;18.00;63.70;;;;;;10009981;29;93289;-66
2023/03/24 13:15:44;;;;;;;;;;;18.00;63.70;;;;;;10002360;29;94007;-66
2023/03/24 13:20:49;;;;;;;;;;;18.00;63.80;;;;;;9990048;29;95734;-67
2023/03/24 13:25:54;;;;;;;;;;;18.00;63.70;;;;;;10010538;29;93347;-69
2023/03/24 13:30:58;;;;;;;;;;;18.00;63.80;;;;;;10011205;29;93920;-67
2023/03/24 13:36:03;;;;;;;;;;;18.00;63.80;;;;;;10010925;29;96740;-67
2023/03/24 13:41:05;;;;;;;;;;;18.00;64.60;;;;;;10010161;29;93559;-65
2023/03/24 13:46:12;;;;;;;;;;;18.00;63.60;;;;;;10008061;29;94471;-67
2023/03/24 13:51:14;;;;;;;;;;;18.00;63.70;;;;;;10007397;29;94151;-67
2023/03/24 13:56:33;;;;;;;;;;;18.00;64.00;;;;;;10010380;29;94520;-67
2023/03/24 14:01:36;;;;;;;;;;;18.00;64.10;;;;;;10008124;29;93937;-66
2023/03/24 14:06:46;;;;;;;;;;;18.00;64.20;;;;;;10009038;29;94535;-68
2023/03/24 14:12:06;;;;;;;;;;;18.00;64.30;;;;;;10010479;29;96805;-67
2023/03/24 14:17:13;;;;;;;;;;;18.00;66.10;;;;;;10012953;29;93470;-68
2023/03/24 14:22:22;;;;;;;;;;;18.10;66.70;;;;;;9996996;29;94839;-67
2023/03/24 14:27:34;;;;;;;;;;;18.10;66.90;;;;;;10014286;29;94462;-69
2023/03/24 14:32:37;;;;;;;;;;;18.10;66.80;;;;;;10014436;29;93659;-67
2023/03/24 14:37:46;;;;;;;;;;;18.20;67.00;;;;;;10013380;29;96277;-69
2023/03/24 14:42:48;;;;;;;;;;;18.20;66.90;;;;;;10014254;29;94703;-72
2023/03/24 14:47:56;;;;;;;;;;;18.30;66.80;;;;;;10014161;29;93995;-65
2023/03/24 14:52:59;;;;;;;;;;;18.30;66.90;;;;;;10012393;29;93319;-69
2023/03/24 14:58:30;;;;;;;;;;;18.30;66.80;;;;;;10013368;29;93414;-67
2023/03/24 15:03:32;;;;;;;;;;;18.30;66.80;;;;;;9995017;29;96885;-67
2023/03/24 15:08:35;;;;;;;;;;;18.30;66.60;;;;;;10012326;29;93668;-68
2023/03/24 15:13:47;;;;;;;;;;;18.30;66.30;;;;;;10012824;29;94671;-71
2023/03/24 15:18:55;;;;;;;;;;;18.30;66.30;;;;;;9959477;29;93735;-67
2023/03/24 15:24:00;;;;;;;;;;;18.30;66.80;;;;;;9974555;29;93174;-67
2023/03/24 15:29:05;;;;;;;;;;;18.30;66.60;;;;;;9958590;29;93425;-67
2023/03/24 15:34:30;;;;;;;;;;;18.20;66.60;;;;;;9957737;29;93626;-66
2023/03/24 15:39:36;;;;;;;;;;;18.20;67.50;;;;;;9974033;29;92162;-66
2023/03/24 15:44:39;;;;;;;;;;;18.20;67.30;;;;;;9974536;29;94692;-66
2023/03/24 15:49:57;;;;;;;;;;;18.30;67.30;;;;;;9957645;29;93672;-67
2023/03/24 15:55:07;;;;;;;;;;;18.30;67.20;;;;;;9971608;29;97044;-67
2023/03/24 16:00:14;;;;;;;;;;;18.30;67.20;;;;;;9958244;29;93443;-65
2023/03/24 16:05:18;;;;;;;;;;;18.30;67.10;;;;;;9973499;29;93967;-67
2023/03/24 16:10:41;;;;;;;;;;;18.30;67.00;;;;;;9970917;29;93421;-69
2023/03/24 16:15:44;;;;;;;;;;;18.30;66.80;;;;;;9972537;29;94464;-70
2023/03/24 16:20:46;;;;;;;;;;;18.30;67.00;;;;;;9971003;29;93810;-68
2023/03/24 16:25:48;;;;;;;;;;;18.40;67.70;;;;;;9972106;29;93522;-71
2023/03/24 16:31:13;;;;;;;;;;;18.50;67.20;;;;;;9972015;29;92865;-66
2023/03/24 16:36:17;;;;;;;;;;;18.50;66.90;;;;;;9965470;29;93982;-68
2023/03/24 16:41:19;;;;;;;;;;;18.70;66.70;;;;;;9971799;29;93492;-67
2023/03/24 16:46:28;;;;;;;;;;;18.90;66.10;;;;;;9968194;29;96892;-71
2023/03/24 16:51:30;;;;;;;;;;;19.30;65.40;;;;;;9954708;29;94437;-73
2023/03/24 16:56:32;;;;;;;;;;;19.30;65.10;;;;;;9971289;29;94783;-72
2023/03/24 17:01:36;;;;;;;;;;;19.20;66.10;;;;;;9971535;29;94239;-72
2023/03/24 17:06:42;;;;;;;;;;;19.20;68.10;;;;;;9971124;29;93336;-72
2023/03/24 17:11:46;;;;;;;;;;;19.30;72.40;;;;;;9971899;29;94593;-72
2023/03/24 17:16:51;;;;;;;;;;;19.50;73.00;;;;;;9971695;29;94131;-73
2023/03/24 17:21:56;;;;;;;;;;;19.60;71.70;;;;;;9956154;29;93200;-73
2023/03/24 17:27:00;;;;;;;;;;;19.50;70.70;;;;;;9970009;29;94460;-72
2023/03/24 17:32:01;;;;;;;;;;;19.40;70.30;;;;;;9970922;29;93253;-72
2023/03/24 17:37:03;;;;;;;;;;;19.30;70.00;;;;;;9968132;29;97199;-73
2023/03/24 17:42:05;;;;;;;;;;;19.10;70.00;;;;;;9969405;29;94588;-73
2023/03/24 17:47:07;;;;;;;;;;;19.00;69.90;;;;;;9976972;29;93863;-73
2023/03/24 17:52:09;;;;;;;;;;;19.00;70.00;;;;;;9976856;29;94145;-74
2023/03/24 17:57:11;;;;;;;;;;;18.80;69.80;;;;;;9977117;29;94452;-75
2023/03/24 18:02:12;;;;;;;;;;;18.80;69.70;;;;;;9976130;29;94490;-74
2023/03/24 18:07:14;;;;;;;;;;;18.70;69.50;;;;;;9976484;29;93461;-74
2023/03/24 18:12:19;;;;;;;;;;;18.70;69.40;;;;;;9976950;29;92565;-74
2023/03/24 18:17:22;;;;;;;;;;;18.60;69.40;;;;;;9975689;29;93425;-74
2023/03/24 18:22:23;;;;;;;;;;;18.60;69.40;;;;;;9976093;29;94483;-74
2023/03/24 18:27:25;;;;;;;;;;;18.60;69.40;;;;;;9975327;29;95741;-74
2023/03/24 18:32:27;;;;;;;;;;;18.50;69.20;;;;;;9975669;29;93488;-74
2023/03/24 18:37:29;;;;;;;;;;;18.50;69.30;;;;;;9975977;29;93706;-74
2023/03/24 18:42:31;;;;;;;;;;;18.50;69.20;;;;;;9975556;29;92860;-74
2023/03/24 18:47:32;;;;;;;;;;;18.50;69.30;;;;;;9974368;29;93523;-73
2023/03/24 18:52:34;;;;;;;;;;;18.40;69.60;;;;;;9973533;29;93701;-71
2023/03/24 18:57:36;;;;;;;;;;;18.50;70.50;;;;;;9965946;29;93477;-72
2023/03/24 19:02:37;;;;;;;;;;;18.50;69.70;;;;;;10013319;29;94971;-68
2023/03/24 19:07:39;;;;;;;;;;;18.50;69.50;;;;;;10011832;29;92523;-69
2023/03/24 19:12:41;;;;;;;;;;;18.40;69.40;;;;;;10013086;29;94268;-67
2023/03/24 19:17:43;;;;;;;;;;;18.40;69.30;;;;;;9993872;29;95636;-67
2023/03/24 19:22:45;;;;;;;;;;;18.40;69.50;;;;;;10012629;29;94510;-68
2023/03/24 19:27:47;;;;;;;;;;;18.40;69.60;;;;;;9995386;29;94712;-67
2023/03/24 19:32:49;;;;;;;;;;;18.40;69.70;;;;;;9995173;29;93336;-68
2023/03/24 19:37:52;;;;;;;;;;;18.40;69.70;;;;;;10011745;29;92880;-68
2023/03/24 19:42:54;;;;;;;;;;;18.50;69.90;;;;;;9994617;29;93498;-67
2023/03/24 19:47:56;;;;;;;;;;;18.50;69.90;;;;;;10009159;29;93593;-68
2023/03/24 19:52:58;;;;;;;;;;;18.40;69.60;;;;;;9994221;29;93501;-67
2023/03/24 19:57:59;;;;;;;;;;;18.40;69.60;;;;;;10010819;29;93668;-69
2023/03/24 20:03:01;;;;;;;;;;;18.40;71.50;;;;;;10011989;29;94329;-67
2023/03/24 20:08:03;;;;;;;;;;;18.50;70.10;;;;;;10007887;29;96269;-67
2023/03/24 20:13:05;;;;;;;;;;;18.50;70.00;;;;;;10010771;29;94486;-67
2023/03/24 20:18:09;;;;;;;;;;;18.50;69.80;;;;;;10010593;29;93611;-68
2023/03/24 20:23:11;;;;;;;;;;;18.40;69.90;;;;;;10010774;29;94257;-68
2023/03/24 20:28:12;;;;;;;;;;;18.40;69.80;;;;;;10011418;29;93574;-68
2023/03/24 20:33:14;;;;;;;;;;;18.40;69.80;;;;;;10011410;29;94794;-68
2023/03/24 20:38:16;;;;;;;;;;;18.40;69.70;;;;;;10011284;29;95513;-68
2023/03/24 20:43:18;;;;;;;;;;;18.40;69.80;;;;;;10010815;29;92166;-67
2023/03/24 20:48:20;;;;;;;;;;;18.30;69.60;;;;;;10010269;29;93106;-67
2023/03/24 20:53:23;;;;;;;;;;;18.30;69.70;;;;;;10010718;29;93068;-67
2023/03/24 20:58:26;;;;;;;;;;;18.30;69.70;;;;;;10008662;29;96956;-68
2023/03/24 21:03:28;;;;;;;;;;;18.30;69.60;;;;;;10010439;29;94052;-68
2023/03/24 21:08:31;;;;;;;;;;;18.30;69.50;;;;;;9992495;29;94743;-68
2023/03/24 21:13:37;;;;;;;;;;;18.30;69.40;;;;;;10009823;29;93456;-68
2023/03/24 21:18:42;;;;;;;;;;;18.30;69.50;;;;;;10014559;29;94165;-68
2023/03/24 21:23:44;;;;;;;;;;;18.20;69.30;;;;;;10015667;29;94458;-69
2023/03/24 21:28:46;;;;;;;;;;;18.20;69.30;;;;;;10018130;29;95025;-67
2023/03/24 21:33:48;;;;;;;;;;;18.20;69.00;;;;;;10016893;29;93682;-69
2023/03/24 21:38:50;;;;;;;;;;;18.20;69.20;;;;;;10016772;29;94515;-68
2023/03/24 21:43:52;;;;;;;;;;;18.10;69.00;;;;;;10016209;29;93667;-69
2023/03/24 21:48:57;;;;;;;;;;;18.10;68.90;;;;;;10013089;29;97037;-69
2023/03/24 21:54:02;;;;;;;;;;;18.10;68.80;;;;;;10015545;29;93406;-67
2023/03/24 21:59:04;;;;;;;;;;;18.10;68.70;;;;;;10015199;29;94444;-67
2023/03/24 22:04:07;;;;;;;;;;;18.10;68.70;;;;;;10015372;29;93317;-69
2023/03/24 22:09:09;;;;;;;;;;;18.00;68.40;;;;;;10015401;29;94635;-69
2023/03/24 22:14:11;;;;;;;;;;;18.00;68.20;;;;;;10015257;29;93569;-67
2023/03/24 22:19:13;;;;;;;;;;;18.00;68.10;;;;;;10014297;29;93027;-68
2023/03/24 22:24:15;;;;;;;;;;;18.00;68.00;;;;;;10015260;29;92392;-68
2023/03/24 22:29:17;;;;;;;;;;;18.00;68.00;;;;;;9997603;29;94825;-69
2023/03/24 22:34:20;;;;;;;;;;;18.00;67.80;;;;;;10014717;29;93927;-68
2023/03/24 22:39:22;;;;;;;;;;;18.00;67.80;;;;;;10012396;29;95619;-68
2023/03/24 22:44:24;;;;;;;;;;;17.90;67.50;;;;;;10015739;29;94447;-68
2023/03/24 22:49:25;;;;;;;;;;;17.90;67.50;;;;;;10014445;29;94068;-68
2023/03/24 22:54:27;;;;;;;;;;;17.90;67.40;;;;;;10014508;29;93489;-67
2023/03/24 22:59:31;;;;;;;;;;;17.90;67.30;;;;;;10013310;29;93646;-67
2023/03/24 23:04:32;;;;;;;;;;;17.90;67.30;;;;;;10014010;29;93509;-66
2023/03/24 23:09:35;;;;;;;;;;;17.90;67.30;;;;;;10013389;29;93801;-68
2023/03/24 23:14:37;;;;;;;;;;;17.80;67.10;;;;;;10014935;29;93910;-68
2023/03/24 23:19:39;;;;;;;;;;;17.80;67.00;;;;;;10013647;29;93479;-68
2023/03/24 23:24:41;;;;;;;;;;;17.80;66.90;;;;;;10013160;29;94069;-68
2023/03/24 23:29:43;;;;;;;;;;;17.80;66.80;;;;;;9994552;29;95696;-68
2023/03/24 23:34:47;;;;;;;;;;;17.80;66.90;;;;;;9996484;29;93464;-68
2023/03/24 23:39:49;;;;;;;;;;;17.80;66.70;;;;;;10011516;29;94466;-68
2023/03/24 23:44:52;;;;;;;;;;;17.80;66.70;;;;;;10010205;29;93992;-68
2023/03/24 23:49:54;;;;;;;;;;;17.80;66.60;;;;;;10012515;29;94519;-67
2023/03/24 23:54:57;;;;;;;;;;;17.80;66.60;;;;;;10012136;29;93939;-68
